Terminal Aerodrome Forecast
Issued by NWS Brownsville, TX

Home | Current Version | Previous Version | Text Only | Print | Product List | Glossary On
Versions: 1 2 3 4 5 6 7 8 9 10 11 12 13 14 15 16 17 18 19 20 21 22 23 24 25 26 27 28 29 30 31 32 33 34 35 36 37 38
000
FTUS44 KBRO 161427 AAB
TAFBRO
TAF AMD
KBRO 161427Z 1614/1712 29006KT 4SM BR OVC004
      TEMPO 1614/1616 2SM BR OVC002
     FM161600 23005KT 6SM BR OVC007
     FM162100 16006KT P6SM OVC012
     FM170500 18004KT 6SM BR OVC006
      TEMPO 1709/1712 1SM BR OVC004=

USA.gov is the U.S. government's official web portal to all federal, state and local government web resources and services.